Time;durP1;ratioP1;P1;durP2;ratioP2;P2;SDS_P1;SDS_P2;PMS_P1;PMS_P2;Temp;Humidity;BMP_temperature;BMP_pressure;BME280_temperature;BME280_humidity;BME280_pressure;Samples;Min_cycle;Max_cycle;Signal;HPM_P1;HPM_P2
2024/04/02 00:01:04;;;;;;;23.63;17.33;;;8.80;1.00;;;;;;5094181;28;20462;-66
2024/04/02 00:03:29;;;;;;;21.10;15.07;;;8.90;1.00;;;;;;5093377;28;20404;-64
2024/04/02 00:05:55;;;;;;;24.50;14.87;;;8.80;1.00;;;;;;5094086;28;20452;-64
2024/04/02 00:08:21;;;;;;;18.73;11.53;;;8.80;1.00;;;;;;5093498;28;20619;-65
2024/04/02 00:10:47;;;;;;;24.03;15.70;;;8.80;1.00;;;;;;5093060;28;20239;-65
2024/04/02 00:13:12;;;;;;;26.70;14.83;;;8.80;1.00;;;;;;5093887;28;20174;-65
2024/04/02 00:15:42;;;;;;;19.83;14.73;;;8.80;1.00;;;;;;5094136;28;20178;-66
2024/04/02 00:18:08;;;;;;;22.77;18.73;;;8.80;1.00;;;;;;5093011;28;20679;-64
2024/04/02 00:20:34;;;;;;;21.73;16.37;;;8.80;1.00;;;;;;5093507;28;20397;-66
2024/04/02 00:22:59;;;;;;;20.80;16.37;;;8.80;1.00;;;;;;5094047;28;20194;-63
2024/04/02 00:25:25;;;;;;;19.33;15.13;;;8.80;1.00;;;;;;5075857;28;20250;-66
2024/04/02 00:27:53;;;;;;;20.63;14.70;;;8.80;1.00;;;;;;5093035;28;20206;-68
2024/04/02 00:30:26;;;;;;;25.30;15.03;;;8.80;1.00;;;;;;5093982;28;20205;-64
2024/04/02 00:32:52;;;;;;;25.70;14.53;;;8.70;1.00;;;;;;5093767;28;20835;-66
2024/04/02 00:35:18;;;;;;;19.50;14.63;;;8.70;1.00;;;;;;5092128;28;20391;-67
2024/04/02 00:37:44;;;;;;;20.70;14.67;;;8.80;1.00;;;;;;5093426;28;20407;-69
2024/04/02 00:40:10;;;;;;;18.87;14.77;;;8.80;1.00;;;;;;5092700;28;20448;-64
2024/04/02 00:42:35;;;;;;;19.20;15.00;;;8.80;1.00;;;;;;5093617;28;20208;-70
2024/04/02 00:45:01;;;;;;;20.20;12.53;;;8.70;1.00;;;;;;5093736;28;20465;-63
2024/04/02 00:47:27;;;;;;;25.90;14.57;;;8.70;1.00;;;;;;5093673;28;20166;-66
2024/04/02 00:49:54;;;;;;;24.47;12.63;;;8.70;1.00;;;;;;5092467;28;20465;-68
2024/04/02 00:52:20;;;;;;;29.70;15.30;;;8.70;1.00;;;;;;5093101;28;20173;-65
2024/04/02 00:54:46;;;;;;;26.50;14.70;;;8.70;1.00;;;;;;5074868;28;20378;-63
2024/04/02 00:57:11;;;;;;;23.50;14.67;;;8.70;1.00;;;;;;5093547;28;20236;-72
2024/04/02 00:59:38;;;;;;;25.77;13.80;;;8.80;1.00;;;;;;5092554;28;20456;-63
2024/04/02 01:02:04;;;;;;;20.37;13.47;;;8.70;1.00;;;;;;5093256;28;20174;-64
2024/04/02 01:04:30;;;;;;;23.70;12.90;;;8.80;1.00;;;;;;5093335;28;20383;-63
2024/04/02 01:06:59;;;;;;;23.57;14.23;;;8.80;1.00;;;;;;5093177;28;20979;-66
2024/04/02 01:09:25;;;;;;;21.90;13.73;;;8.80;1.00;;;;;;5092217;28;20766;-66
2024/04/02 01:11:51;;;;;;;23.47;14.73;;;8.80;1.00;;;;;;5074570;28;20379;-68
2024/04/02 01:14:17;;;;;;;23.27;14.73;;;8.80;1.00;;;;;;5093295;28;20371;-66
2024/04/02 01:16:43;;;;;;;20.63;14.57;;;8.80;1.00;;;;;;5092147;28;20739;-66
2024/04/02 01:19:09;;;;;;;18.73;14.07;;;8.80;1.00;;;;;;5090954;28;20173;-64
2024/04/02 01:21:35;;;;;;;26.17;13.57;;;8.80;1.00;;;;;;5093033;28;20394;-66
2024/04/02 01:24:02;;;;;;;16.43;13.67;;;8.80;1.00;;;;;;5093029;28;20705;-64
2024/04/02 01:26:27;;;;;;;22.73;13.23;;;8.80;1.00;;;;;;5093097;28;20426;-65
2024/04/02 01:28:56;;;;;;;13.63;11.00;;;8.80;1.00;;;;;;5092054;28;20780;-65
2024/04/02 01:31:21;;;;;;;20.13;12.47;;;8.70;1.00;;;;;;5074740;28;20220;-66
2024/04/02 01:33:47;;;;;;;15.60;12.10;;;8.70;1.00;;;;;;5093050;28;20400;-66
2024/04/02 01:36:13;;;;;;;19.80;11.80;;;8.70;1.00;;;;;;5092796;28;20494;-64
2024/04/02 01:38:39;;;;;;;17.40;11.50;;;8.70;1.00;;;;;;5091849;28;20303;-64
2024/04/02 01:41:05;;;;;;;16.80;10.03;;;8.70;1.00;;;;;;5092977;28;20208;-64
2024/04/02 01:43:30;;;;;;;20.40;11.00;;;8.70;1.00;;;;;;5092832;28;20392;-64
2024/04/02 01:45:56;;;;;;;14.17;9.80;;;8.80;1.00;;;;;;5092686;28;20198;-66
2024/04/02 01:48:22;;;;;;;20.70;10.43;;;8.80;1.00;;;;;;5091519;28;20221;-64
2024/04/02 01:50:47;;;;;;;16.87;10.63;;;8.70;1.00;;;;;;5092509;28;20198;-66
2024/04/02 01:53:13;;;;;;;14.50;9.53;;;8.80;1.00;;;;;;5092825;28;20180;-67
2024/04/02 01:55:38;;;;;;;13.37;10.40;;;8.80;1.00;;;;;;5093062;28;20174;-63
2024/04/02 01:58:04;;;;;;;14.60;9.27;;;8.70;1.00;;;;;;5091820;28;20654;-64
2024/04/02 02:00:30;;;;;;;18.60;10.00;;;8.80;1.00;;;;;;5092640;28;20198;-65
2024/04/02 02:02:55;;;;;;;19.40;11.10;;;8.80;1.00;;;;;;5074533;28;20282;-66
2024/04/02 02:05:21;;;;;;;20.67;12.47;;;8.80;1.00;;;;;;5092490;28;20190;-64
2024/04/02 02:07:47;;;;;;;16.30;9.00;;;8.80;1.00;;;;;;5092143;28;20162;-68
2024/04/02 02:10:13;;;;;;;18.13;10.67;;;8.80;1.00;;;;;;5092013;28;20304;-66
2024/04/02 02:12:39;;;;;;;21.97;10.10;;;8.80;1.00;;;;;;5092536;28;20172;-66
2024/04/02 02:15:06;;;;;;;20.60;10.70;;;8.90;1.00;;;;;;5092637;28;20391;-63
2024/04/02 02:17:31;;;;;;;18.20;11.00;;;8.80;1.00;;;;;;5092477;28;20439;-63
2024/04/02 02:19:57;;;;;;;23.93;12.27;;;8.80;1.00;;;;;;5073494;28;20471;-64
2024/04/02 02:22:23;;;;;;;19.67;10.30;;;8.80;1.00;;;;;;5092723;28;20170;-65
2024/04/02 02:24:49;;;;;;;23.93;13.67;;;8.80;1.00;;;;;;5091923;28;20523;-65
2024/04/02 02:27:14;;;;;;;18.23;10.97;;;8.80;1.00;;;;;;5093313;28;20426;-70
2024/04/02 02:29:40;;;;;;;18.47;10.67;;;8.80;1.00;;;;;;5095285;28;20194;-64
2024/04/02 02:32:06;;;;;;;11.53;9.10;;;8.80;1.00;;;;;;5077965;28;20256;-64
2024/04/02 02:34:31;;;;;;;21.70;12.90;;;8.80;1.00;;;;;;5096064;28;20174;-69
2024/04/02 02:36:57;;;;;;;15.40;10.73;;;8.80;1.00;;;;;;5096134;28;20170;-66
2024/04/02 02:39:23;;;;;;;15.70;10.90;;;8.80;1.00;;;;;;5094972;28;20527;-65
2024/04/02 02:41:49;;;;;;;20.73;12.60;;;8.70;1.00;;;;;;5077969;28;20202;-65
2024/04/02 02:44:14;;;;;;;23.17;12.00;;;8.70;1.00;;;;;;5095316;28;20174;-70
2024/04/02 02:46:40;;;;;;;18.17;11.63;;;8.80;1.00;;;;;;5095606;28;20775;-64
2024/04/02 02:49:06;;;;;;;22.17;13.10;;;8.80;1.00;;;;;;5094694;28;20597;-64
2024/04/02 02:51:31;;;;;;;15.80;10.63;;;8.80;1.00;;;;;;5095691;28;20170;-64
2024/04/02 02:53:57;;;;;;;23.93;11.37;;;8.70;1.00;;;;;;5095662;28;20171;-64
2024/04/02 02:56:23;;;;;;;21.50;11.37;;;8.70;1.00;;;;;;5095855;28;20218;-64
2024/04/02 02:58:52;;;;;;;16.20;10.80;;;8.70;1.00;;;;;;5094691;28;20175;-65
2024/04/02 03:01:18;;;;;;;13.97;9.47;;;8.70;1.00;;;;;;5094862;28;20198;-65
2024/04/02 03:03:48;;;;;;;16.60;12.07;;;8.80;1.00;;;;;;5095570;28;20383;-64
2024/04/02 03:06:13;;;;;;;15.67;10.17;;;8.70;1.00;;;;;;5095401;28;20429;-64
2024/04/02 03:08:40;;;;;;;23.60;11.53;;;8.80;1.00;;;;;;5094490;28;20391;-64
2024/04/02 03:11:07;;;;;;;21.10;11.63;;;8.80;1.00;;;;;;5095196;28;20201;-65
2024/04/02 03:13:33;;;;;;;22.43;12.47;;;8.80;1.00;;;;;;5095369;28;20833;-65
2024/04/02 03:16:00;;;;;;;21.60;11.87;;;8.80;1.00;;;;;;5095302;28;20371;-64
2024/04/02 03:18:27;;;;;;;18.50;10.43;;;8.80;1.00;;;;;;5075869;28;20394;-63
2024/04/02 03:20:53;;;;;;;20.97;11.20;;;8.80;1.00;;;;;;5095062;28;20403;-64
2024/04/02 03:23:21;;;;;;;18.17;9.60;;;8.80;1.00;;;;;;5094993;28;20859;-64
2024/04/02 03:26:01;;;;;;;20.70;12.60;;;8.80;1.00;;;;;;5095099;28;20200;-64
2024/04/02 03:28:27;;;;;;;16.03;10.73;;;8.80;1.00;;;;;;5094338;28;20466;-65
2024/04/02 03:31:00;;;;;;;21.77;12.10;;;8.80;1.00;;;;;;5094962;28;20398;-64
2024/04/02 03:33:31;;;;;;;21.27;11.50;;;8.80;1.00;;;;;;5094848;28;20376;-64
2024/04/02 03:36:05;;;;;;;25.40;11.30;;;8.80;1.00;;;;;;5094469;28;20375;-64
2024/04/02 03:38:32;;;;;;;22.57;13.17;;;8.80;1.00;;;;;;5093127;28;20466;-71
2024/04/02 03:41:12;;;;;;;25.70;12.03;;;8.80;1.00;;;;;;5094669;28;20398;-64
2024/04/02 03:43:39;;;;;;;18.73;10.50;;;8.80;1.00;;;;;;5094694;28;20389;-65
2024/04/02 03:46:08;;;;;;;22.40;11.20;;;8.80;1.00;;;;;;5094278;28;20438;-64
2024/04/02 03:48:34;;;;;;;21.20;12.47;;;8.80;1.00;;;;;;5093721;28;20427;-67
2024/04/02 03:51:00;;;;;;;24.40;12.90;;;8.70;1.00;;;;;;5094696;28;20960;-70
2024/04/02 03:53:26;;;;;;;20.10;12.77;;;8.70;1.00;;;;;;5093983;28;20605;-65
2024/04/02 03:55:59;;;;;;;16.37;11.03;;;8.80;1.00;;;;;;5076299;28;20781;-65
2024/04/02 03:58:26;;;;;;;26.60;14.07;;;8.80;1.00;;;;;;5093661;28;20534;-65
2024/04/02 04:00:54;;;;;;;18.30;11.80;;;8.80;1.00;;;;;;5076358;28;20406;-64
2024/04/02 04:03:23;;;;;;;19.10;11.70;;;8.80;1.00;;;;;;5076650;28;20385;-65
2024/04/02 04:06:02;;;;;;;23.50;12.37;;;8.80;1.00;;;;;;5094294;28;20475;-64
2024/04/02 04:08:30;;;;;;;15.20;11.40;;;8.90;1.00;;;;;;5093447;28;20363;-65
2024/04/02 04:10:56;;;;;;;17.43;11.93;;;8.90;1.00;;;;;;5093574;28;20425;-65
2024/04/02 04:13:22;;;;;;;23.47;10.73;;;8.80;1.00;;;;;;5094139;28;20396;-65
2024/04/02 04:15:56;;;;;;;18.83;11.67;;;8.80;1.00;;;;;;5094231;28;20177;-65
2024/04/02 04:18:23;;;;;;;14.70;10.27;;;8.80;1.00;;;;;;5093404;28;20386;-65
2024/04/02 04:20:55;;;;;;;17.90;10.63;;;8.80;1.00;;;;;;5093940;28;20430;-64
2024/04/02 04:23:22;;;;;;;21.27;12.33;;;8.90;1.00;;;;;;5093854;28;20733;-65
2024/04/02 04:25:58;;;;;;;17.00;10.63;;;8.80;1.00;;;;;;5093844;28;20443;-65
2024/04/02 04:28:24;;;;;;;19.00;11.03;;;8.90;1.00;;;;;;5092864;28;20523;-66
2024/04/02 04:30:54;;;;;;;25.13;12.13;;;8.80;1.00;;;;;;5093482;28;20420;-64
2024/04/02 04:33:20;;;;;;;16.93;11.03;;;8.80;1.00;;;;;;5093737;28;20396;-65
2024/04/02 04:35:50;;;;;;;16.20;10.33;;;8.80;1.00;;;;;;5093746;28;20410;-65
2024/04/02 04:38:16;;;;;;;19.83;11.70;;;8.80;1.00;;;;;;5092826;28;20173;-65
2024/04/02 04:40:42;;;;;;;19.73;12.07;;;8.80;1.00;;;;;;5093520;28;20394;-65
2024/04/02 04:43:08;;;;;;;15.90;10.17;;;8.80;1.00;;;;;;5093788;28;20440;-65
2024/04/02 04:45:34;;;;;;;15.97;10.93;;;8.80;1.00;;;;;;5093494;28;20461;-65
2024/04/02 04:48:00;;;;;;;14.03;9.33;;;8.90;1.00;;;;;;5091862;28;20512;-65
2024/04/02 04:50:25;;;;;;;17.17;11.03;;;8.80;1.00;;;;;;5093323;28;20395;-64
2024/04/02 04:52:54;;;;;;;17.17;11.57;;;8.80;1.00;;;;;;5093424;28;20566;-64
2024/04/02 04:55:20;;;;;;;12.20;10.00;;;8.70;1.00;;;;;;5093521;28;20204;-65
2024/04/02 04:57:45;;;;;;;12.87;9.33;;;8.80;1.00;;;;;;5093411;28;20356;-65
2024/04/02 05:00:14;;;;;;;17.53;9.83;;;8.70;1.00;;;;;;5092529;28;20229;-64
2024/04/02 05:02:40;;;;;;;19.13;11.70;;;8.70;1.00;;;;;;5093332;28;20182;-65
2024/04/02 05:05:07;;;;;;;14.33;9.23;;;8.70;1.00;;;;;;5092815;28;20776;-65
2024/04/02 05:07:33;;;;;;;16.10;10.77;;;8.80;1.00;;;;;;5092989;28;20162;-64
2024/04/02 05:09:58;;;;;;;14.67;10.20;;;8.80;1.00;;;;;;5092226;28;20399;-65
2024/04/02 05:12:24;;;;;;;11.27;9.30;;;8.80;1.00;;;;;;5074947;28;20595;-64
2024/04/02 05:14:50;;;;;;;12.37;8.40;;;8.80;1.00;;;;;;5093052;28;20176;-65
2024/04/02 05:17:15;;;;;;;14.40;9.00;;;8.90;1.00;;;;;;5093163;28;20173;-70
2024/04/02 05:19:41;;;;;;;15.63;8.60;;;8.80;1.00;;;;;;5092264;28;20280;-64
2024/04/02 05:22:08;;;;;;;15.50;9.23;;;8.80;1.00;;;;;;5092563;28;20179;-66
2024/04/02 05:24:34;;;;;;;15.10;9.00;;;8.80;1.00;;;;;;5092845;28;20170;-65
2024/04/02 05:27:02;;;;;;;17.00;9.50;;;8.80;1.00;;;;;;5093090;28;20448;-65
2024/04/02 05:29:29;;;;;;;14.70;9.47;;;8.80;1.00;;;;;;5091998;28;20188;-65
2024/04/02 05:31:54;;;;;;;11.20;8.63;;;8.90;1.00;;;;;;5093061;28;20404;-69
2024/04/02 05:34:20;;;;;;;12.13;8.60;;;8.90;1.00;;;;;;5093000;28;20389;-65
2024/04/02 05:36:46;;;;;;;12.73;8.03;;;8.90;1.00;;;;;;5092883;28;20207;-65
2024/04/02 05:39:11;;;;;;;9.13;7.47;;;8.90;1.00;;;;;;5091779;28;20263;-67
2024/04/02 05:41:37;;;;;;;23.70;9.03;;;8.90;1.00;;;;;;5092571;28;20170;-65
2024/04/02 05:44:03;;;;;;;16.23;8.93;;;8.90;1.00;;;;;;5092752;28;20180;-65
2024/04/02 05:46:28;;;;;;;16.20;8.43;;;8.90;1.00;;;;;;5092470;28;20693;-66
2024/04/02 05:48:54;;;;;;;16.43;10.80;;;8.90;1.00;;;;;;5073978;28;20194;-65
2024/04/02 05:51:20;;;;;;;24.13;8.73;;;8.90;1.00;;;;;;5092625;28;20272;-64
2024/04/02 05:53:46;;;;;;;13.40;7.87;;;8.90;1.00;;;;;;5092941;28;20166;-64
2024/04/02 05:56:13;;;;;;;13.47;7.20;;;8.90;1.00;;;;;;5092671;28;20173;-65
2024/04/02 05:58:38;;;;;;;14.23;9.03;;;8.90;1.00;;;;;;5091305;28;20396;-65
2024/04/02 06:01:05;;;;;;;10.97;8.77;;;8.90;1.00;;;;;;5092402;28;20420;-65
2024/04/02 06:03:31;;;;;;;17.93;8.40;;;9.00;1.00;;;;;;5095809;28;20185;-65
2024/04/02 06:06:00;;;;;;;11.60;8.00;;;9.00;1.00;;;;;;5096623;28;20427;-64
2024/04/02 06:08:26;;;;;;;20.47;9.80;;;9.00;99.90;;;;;;5077697;28;20173;-64
2024/04/02 06:10:52;;;;;;;16.90;7.20;;;9.00;99.90;;;;;;5078375;28;20409;-65
2024/04/02 06:13:17;;;;;;;19.17;7.43;;;9.00;99.90;;;;;;5078218;28;20383;-65
2024/04/02 06:15:44;;;;;;;14.20;8.10;;;9.10;99.90;;;;;;5095999;28;20356;-66
2024/04/02 06:18:09;;;;;;;14.70;8.60;;;9.10;99.90;;;;;;5095501;28;20162;-64
2024/04/02 06:20:35;;;;;;;15.60;8.97;;;9.00;99.90;;;;;;5078102;28;20484;-66
2024/04/02 06:23:01;;;;;;;15.57;8.40;;;9.10;99.90;;;;;;5078251;28;20386;-65
2024/04/02 06:25:28;;;;;;;19.33;8.20;;;9.00;99.90;;;;;;5096102;28;20519;-65
2024/04/02 06:27:53;;;;;;;20.20;7.20;;;9.00;99.90;;;;;;5095155;28;20197;-71
2024/04/02 06:30:19;;;;;;;16.20;8.73;;;9.10;99.90;;;;;;5096115;28;20476;-64
2024/04/02 06:32:45;;;;;;;16.63;8.57;;;9.00;99.90;;;;;;5096044;28;20198;-65
2024/04/02 06:35:11;;;;;;;19.13;8.37;;;9.10;99.90;;;;;;5095792;28;20189;-71
2024/04/02 06:37:37;;;;;;;17.50;8.00;;;9.10;99.90;;;;;;5095875;28;20240;-64
2024/04/02 06:40:03;;;;;;;14.17;8.37;;;9.10;99.90;;;;;;5095008;28;20398;-64
2024/04/02 06:42:29;;;;;;;16.63;8.40;;;9.10;99.90;;;;;;5096018;28;20373;-64
2024/04/02 06:44:55;;;;;;;9.83;7.30;;;9.10;99.90;;;;;;5077558;28;20927;-65
2024/04/02 06:47:21;;;;;;;10.70;8.93;;;9.10;99.90;;;;;;5095840;28;20198;-65
2024/04/02 06:49:47;;;;;;;9.23;7.30;;;9.10;99.90;;;;;;5094823;28;21006;-64
2024/04/02 06:52:12;;;;;;;10.30;7.70;;;9.10;99.90;;;;;;5095716;28;20375;-65
2024/04/02 06:54:38;;;;;;;20.63;8.00;;;9.10;99.90;;;;;;5095582;28;20174;-66
2024/04/02 06:57:04;;;;;;;14.47;9.63;;;9.20;99.90;;;;;;5095141;28;20175;-65
2024/04/02 06:59:30;;;;;;;13.40;7.57;;;9.20;99.90;;;;;;5094562;28;20399;-65
2024/04/02 07:01:56;;;;;;;17.67;9.83;;;9.10;99.90;;;;;;5095582;28;20177;-70
2024/04/02 07:04:21;;;;;;;14.33;6.77;;;9.10;99.90;;;;;;5077263;28;20181;-65
2024/04/02 07:06:47;;;;;;;22.57;10.10;;;9.20;99.90;;;;;;5095419;28;20198;-65
2024/04/02 07:09:12;;;;;;;13.03;7.60;;;9.20;99.90;;;;;;5094381;28;20181;-68
2024/04/02 07:11:38;;;;;;;10.13;8.30;;;9.20;99.90;;;;;;5094932;28;20182;-65
2024/04/02 07:14:04;;;;;;;17.30;7.67;;;9.20;99.90;;;;;;5095352;28;20189;-65
2024/04/02 07:16:29;;;;;;;12.40;7.40;;;9.20;99.90;;;;;;5095500;28;20634;-65
2024/04/02 07:18:55;;;;;;;16.70;7.50;;;9.30;99.90;;;;;;5094226;28;20630;-65
2024/04/02 07:21:21;;;;;;;9.73;7.33;;;9.30;99.90;;;;;;5094967;28;20229;-66
2024/04/02 07:23:46;;;;;;;17.53;7.83;;;9.30;99.90;;;;;;5095451;28;20219;-65
2024/04/02 07:26:12;;;;;;;13.63;7.70;;;9.30;99.90;;;;;;5076917;28;20243;-65
2024/04/02 07:28:39;;;;;;;13.47;7.43;;;9.30;99.90;;;;;;5076358;28;20173;-67
2024/04/02 07:31:04;;;;;;;14.20;6.50;;;9.30;99.90;;;;;;5094543;28;20240;-66
2024/04/02 07:33:30;;;;;;;18.50;7.90;;;9.30;99.90;;;;;;5094914;28;20387;-64
2024/04/02 07:35:56;;;;;;;9.97;7.57;;;9.30;99.90;;;;;;5094878;28;20170;-69
2024/04/02 07:38:22;;;;;;;8.17;6.77;;;9.30;99.90;;;;;;5094255;28;20173;-65
2024/04/02 07:40:48;;;;;;;10.50;7.00;;;9.40;99.90;;;;;;5076797;28;20438;-66
2024/04/02 07:43:14;;;;;;;9.97;7.60;;;9.40;99.90;;;;;;5094651;28;20189;-71
2024/04/02 07:45:39;;;;;;;11.80;8.33;;;9.50;99.90;;;;;;5094682;28;20258;-65
2024/04/02 07:48:06;;;;;;;11.53;7.57;;;9.50;99.90;;;;;;5093768;28;20178;-68
2024/04/02 07:50:33;;;;;;;9.23;8.13;;;9.50;99.90;;;;;;5076097;28;20223;-71
2024/04/02 07:52:58;;;;;;;12.57;7.30;;;9.50;99.90;;;;;;5094776;28;20487;-66
2024/04/02 07:55:24;;;;;;;11.13;7.57;;;9.50;99.90;;;;;;5094282;28;20487;-67
2024/04/02 07:57:50;;;;;;;8.13;7.23;;;9.60;99.90;;;;;;5093872;28;20572;-66
2024/04/02 08:00:17;;;;;;;10.73;7.10;;;9.50;99.90;;;;;;5076433;28;20282;-70
2024/04/02 08:02:46;;;;;;;19.17;8.33;;;9.50;99.90;;;;;;5094372;28;20163;-66
2024/04/02 08:05:12;;;;;;;13.80;8.87;;;9.50;99.90;;;;;;5094160;28;20396;-70
2024/04/02 08:07:37;;;;;;;12.00;7.50;;;9.50;99.90;;;;;;5093823;28;20860;-67
2024/04/02 08:10:03;;;;;;;10.30;7.70;;;9.50;99.90;;;;;;5092459;28;20413;-72
2024/04/02 08:12:29;;;;;;;14.70;8.17;;;9.60;99.90;;;;;;5094360;28;20694;-67
2024/04/02 08:14:54;;;;;;;11.23;6.40;;;9.60;99.90;;;;;;5093242;28;20531;-67
2024/04/02 08:17:20;;;;;;;10.33;7.10;;;9.70;99.90;;;;;;5092795;28;20633;-70
2024/04/02 08:19:46;;;;;;;12.00;7.70;;;9.70;99.90;;;;;;5093423;28;20260;-67
2024/04/02 08:22:13;;;;;;;22.43;8.23;;;9.80;99.90;;;;;;5094024;28;20256;-72
2024/04/02 08:24:39;;;;;;;9.83;7.83;;;9.90;99.90;;;;;;5093125;28;20182;-68
2024/04/02 08:27:05;;;;;;;12.50;6.47;;;9.80;99.90;;;;;;5093603;28;20444;-68
2024/04/02 08:29:31;;;;;;;11.20;7.57;;;9.80;99.90;;;;;;5093225;28;20231;-72
2024/04/02 08:31:57;;;;;;;10.43;7.23;;;9.80;99.90;;;;;;5093824;28;20388;-68
2024/04/02 08:34:23;;;;;;;12.87;7.07;;;9.80;99.90;;;;;;5094014;28;20164;-67
2024/04/02 08:36:48;;;;;;;13.43;7.70;;;9.80;99.90;;;;;;5093751;28;20398;-68
2024/04/02 08:39:14;;;;;;;13.40;7.93;;;9.90;99.90;;;;;;5092919;28;20179;-68
2024/04/02 08:41:41;;;;;;;12.57;8.57;;;9.90;99.90;;;;;;5093357;28;20221;-71
2024/04/02 08:44:07;;;;;;;12.83;8.17;;;9.90;99.90;;;;;;5093357;28;20246;-67
2024/04/02 08:46:33;;;;;;;14.53;7.80;;;9.90;99.90;;;;;;5093643;28;20585;-73
2024/04/02 08:48:59;;;;;;;14.43;8.30;;;9.90;99.90;;;;;;5092858;28;20184;-71
2024/04/02 08:51:29;;;;;;;19.03;11.23;;;9.90;99.90;;;;;;5093373;28;20793;-72
2024/04/02 08:53:55;;;;;;;11.17;7.47;;;9.90;99.90;;;;;;5093342;28;20375;-72
2024/04/02 08:56:21;;;;;;;9.80;6.93;;;9.90;99.90;;;;;;5093513;28;20379;-71
2024/04/02 08:58:47;;;;;;;11.20;7.87;;;10.00;99.90;;;;;;5092697;28;20411;-67
2024/04/02 09:01:14;;;;;;;13.43;9.77;;;10.00;99.90;;;;;;5093133;28;20202;-72
2024/04/02 09:03:41;;;;;;;11.60;7.27;;;10.10;99.90;;;;;;5093070;28;20375;-68
2024/04/02 09:06:07;;;;;;;16.00;8.60;;;10.20;99.90;;;;;;5093157;28;20423;-69
2024/04/02 09:08:46;;;;;;;7.43;6.60;;;10.30;99.90;;;;;;5092792;28;20364;-73
2024/04/02 09:11:12;;;;;;;8.87;6.80;;;10.30;93.90;;;;;;5093340;28;20828;-75
2024/04/02 09:13:39;;;;;;;12.77;7.53;;;10.40;80.70;;;;;;5093294;28;20382;-72
2024/04/02 09:16:06;;;;;;;17.17;8.20;;;10.50;60.60;;;;;;5093035;28;20451;-72
2024/04/02 09:18:35;;;;;;;14.33;7.07;;;10.50;20.80;;;;;;5073832;28;20412;-72
2024/04/02 09:21:01;;;;;;;7.77;6.33;;;10.40;1.00;;;;;;5093139;28;20904;-68
2024/04/02 09:23:27;;;;;;;13.73;6.50;;;10.40;1.00;;;;;;5093114;28;20397;-72
2024/04/02 09:25:55;;;;;;;13.53;7.13;;;10.50;1.00;;;;;;5074626;28;20443;-69
2024/04/02 09:28:20;;;;;;;14.47;8.03;;;10.40;1.00;;;;;;5092163;28;20875;-72
2024/04/02 09:30:46;;;;;;;10.30;7.60;;;10.40;1.00;;;;;;5092905;28;20419;-68
2024/04/02 09:33:12;;;;;;;9.40;7.57;;;10.50;1.00;;;;;;5092984;28;20556;-73
2024/04/02 09:36:11;;;;;;;13.00;7.07;;;10.50;1.00;;;;;;5092055;28;20658;-71
2024/04/02 09:38:37;;;;;;;6.70;6.03;;;10.50;1.00;;;;;;5095641;28;20745;-70
2024/04/02 09:41:04;;;;;;;12.10;7.77;;;10.60;1.00;;;;;;5097205;28;20403;-68
2024/04/02 09:43:31;;;;;;;11.30;7.53;;;10.60;1.00;;;;;;5096796;28;20412;-71
2024/04/02 09:46:00;;;;;;;10.50;8.53;;;10.50;1.00;;;;;;5096906;28;20484;-69
2024/04/02 09:48:29;;;;;;;11.73;7.37;;;10.50;1.00;;;;;;5096037;28;20843;-71
2024/04/02 09:50:56;;;;;;;10.90;7.87;;;10.60;1.00;;;;;;5096699;28;20393;-70
2024/04/02 09:53:22;;;;;;;14.30;7.67;;;10.70;1.00;;;;;;5078597;28;20413;-68
2024/04/02 09:55:49;;;;;;;8.83;7.00;;;10.70;1.00;;;;;;5096945;28;20384;-73
2024/04/02 09:58:15;;;;;;;14.47;8.00;;;10.80;1.00;;;;;;5095727;28;20383;-72
2024/04/02 10:00:46;;;;;;;11.60;7.60;;;10.80;1.00;;;;;;5096528;28;20796;-72
2024/04/02 10:03:13;;;;;;;12.97;7.43;;;10.70;1.00;;;;;;5096847;28;20385;-75
2024/04/02 10:05:39;;;;;;;10.63;7.10;;;10.70;1.00;;;;;;5096696;28;20528;-70
2024/04/02 10:08:07;;;;;;;8.90;8.00;;;10.70;1.00;;;;;;5095378;28;20476;-70
2024/04/02 10:10:39;;;;;;;10.20;8.20;;;10.70;1.00;;;;;;5078101;28;20957;-73
2024/04/02 10:13:06;;;;;;;10.87;7.27;;;10.70;1.00;;;;;;5096380;28;20894;-72
2024/04/02 10:15:32;;;;;;;22.23;7.73;;;10.90;1.00;;;;;;5095853;28;20923;-71
2024/04/02 10:18:00;;;;;;;13.47;8.60;;;11.10;1.00;;;;;;5095527;28;20383;-72
2024/04/02 10:20:33;;;;;;;9.20;7.97;;;11.20;1.00;;;;;;5096200;28;20444;-72
2024/04/02 10:23:00;;;;;;;11.10;8.00;;;11.30;1.00;;;;;;5096352;28;20410;-72
2024/04/02 10:25:28;;;;;;;8.60;6.53;;;11.50;1.00;;;;;;5096143;28;20405;-68
2024/04/02 10:28:00;;;;;;;9.07;7.63;;;11.40;1.00;;;;;;5095242;28;20402;-71
2024/04/02 10:30:27;;;;;;;6.63;5.50;;;11.30;1.00;;;;;;5095888;28;20466;-68
2024/04/02 10:32:57;;;;;;;11.00;8.03;;;11.10;1.00;;;;;;5096045;28;20400;-72
2024/04/02 10:35:25;;;;;;;8.10;7.33;;;11.10;1.00;;;;;;5096103;28;20373;-72
2024/04/02 10:37:58;;;;;;;13.90;8.37;;;11.00;1.00;;;;;;5095135;28;20918;-75
2024/04/02 10:40:31;;;;;;;9.57;7.90;;;11.00;1.00;;;;;;5096091;28;20423;-71
2024/04/02 10:42:56;;;;;;;10.67;7.37;;;10.90;1.00;;;;;;5095956;28;20380;-73
2024/04/02 10:45:22;;;;;;;12.90;7.60;;;10.80;1.00;;;;;;5095903;28;20385;-72
2024/04/02 10:47:49;;;;;;;12.80;7.33;;;10.80;1.00;;;;;;5094660;28;20173;-78
2024/04/02 10:50:16;;;;;;;18.53;8.10;;;10.80;1.00;;;;;;5095562;28;20189;-72
2024/04/02 10:52:42;;;;;;;17.23;8.37;;;11.00;1.00;;;;;;5095696;28;20365;-69
2024/04/02 10:55:09;;;;;;;13.33;8.20;;;11.00;1.00;;;;;;5095748;28;20410;-72
2024/04/02 10:57:35;;;;;;;10.87;8.47;;;11.00;1.00;;;;;;5095373;28;20425;-70
2024/04/02 11:00:05;;;;;;;11.90;6.83;;;11.10;1.00;;;;;;5094696;28;20400;-70
2024/04/02 11:02:32;;;;;;;9.30;8.13;;;11.10;1.00;;;;;;5095706;28;20417;-74
2024/04/02 11:04:59;;;;;;;9.30;7.13;;;11.10;1.00;;;;;;5095449;28;20384;-72
2024/04/02 11:07:29;;;;;;;11.70;7.83;;;11.20;1.00;;;;;;5094886;28;20458;-72
2024/04/02 11:09:56;;;;;;;9.73;7.00;;;10.90;1.00;;;;;;5076274;28;20437;-74
2024/04/02 11:12:23;;;;;;;8.10;7.10;;;10.90;1.00;;;;;;5095560;28;20767;-70
2024/04/02 11:14:52;;;;;;;12.47;7.40;;;10.90;1.00;;;;;;5095369;28;20378;-73
2024/04/02 11:17:18;;;;;;;9.10;6.53;;;10.90;1.00;;;;;;5095313;28;20415;-73
2024/04/02 11:19:44;;;;;;;7.90;6.50;;;10.90;99.90;;;;;;5094419;28;20437;-70
2024/04/02 11:25:09;;;;;;;7.00;6.07;;;10.90;99.90;;;;;;5079543;28;20371;-73
2024/04/02 11:27:34;;;;;;;7.17;6.10;;;11.00;99.90;;;;;;5095065;28;20422;-72
2024/04/02 11:30:00;;;;;;;6.93;6.27;;;11.00;99.90;;;;;;5094006;28;20800;-70
2024/04/02 11:32:27;;;;;;;5.90;5.40;;;10.90;99.90;;;;;;5095142;28;20166;-70
2024/04/02 11:35:09;;;;;;;10.43;7.17;;;10.80;99.90;;;;;;5095043;28;20162;-69
2024/04/02 11:37:35;;;;;;;10.93;6.83;;;10.80;99.90;;;;;;5094977;28;20748;-73
2024/04/02 11:40:04;;;;;;;6.97;6.37;;;10.70;99.90;;;;;;5093898;28;20485;-72
2024/04/02 11:42:30;;;;;;;7.93;5.90;;;10.70;99.90;;;;;;5094893;28;20240;-70
2024/04/02 11:45:00;;;;;;;6.53;5.83;;;10.60;99.90;;;;;;5094134;28;20441;-69
2024/04/02 11:47:32;;;;;;;10.80;7.13;;;10.60;99.90;;;;;;5094462;28;20425;-71
2024/04/02 11:49:57;;;;;;;9.50;6.50;;;10.70;99.90;;;;;;5093723;28;20762;-70
2024/04/02 11:52:23;;;;;;;9.70;6.47;;;10.70;99.90;;;;;;5094715;28;20391;-70
2024/04/02 11:54:49;;;;;;;7.63;6.83;;;10.70;99.90;;;;;;5094555;28;20213;-71
2024/04/02 12:00:11;;;;;;;6.83;5.60;;;10.60;99.90;;;;;;5092654;28;20200;-71
2024/04/02 12:02:47;;;;;;;6.17;5.67;;;10.70;99.90;;;;;;5078043;28;20411;-73
2024/04/02 12:05:15;;;;;;;9.70;6.63;;;10.60;99.90;;;;;;5094056;28;20530;-74
2024/04/02 12:07:41;;;;;;;6.47;5.67;;;10.60;99.90;;;;;;5094042;28;20420;-72
2024/04/02 12:10:08;;;;;;;8.87;5.90;;;10.60;99.90;;;;;;5093398;28;20490;-70
2024/04/02 12:12:35;;;;;;;8.27;6.80;;;10.60;99.90;;;;;;5094363;28;20497;-74
2024/04/02 12:15:06;;;;;;;7.90;7.10;;;10.70;99.90;;;;;;5094285;28;20766;-70
2024/04/02 12:17:33;;;;;;;7.00;6.30;;;10.70;99.90;;;;;;5094042;28;20797;-70
2024/04/02 12:19:59;;;;;;;12.70;7.23;;;10.80;99.90;;;;;;5092971;28;20930;-73
2024/04/02 12:22:27;;;;;;;7.00;6.30;;;10.80;99.90;;;;;;5093624;28;20388;-71
2024/04/02 12:24:56;;;;;;;6.17;5.53;;;10.90;99.90;;;;;;5094005;28;20380;-65
2024/04/02 12:27:26;;;;;;;9.33;5.97;;;10.80;99.90;;;;;;5075668;28;20493;-70
2024/04/02 12:29:58;;;;;;;6.87;6.03;;;10.80;99.90;;;;;;5092975;28;20457;-71
2024/04/02 12:32:27;;;;;;;5.60;5.10;;;10.80;99.90;;;;;;5093979;28;20381;-66
2024/04/02 12:34:53;;;;;;;7.27;6.60;;;10.80;99.90;;;;;;5093789;28;20389;-66
2024/04/02 12:37:19;;;;;;;10.20;6.93;;;10.80;99.90;;;;;;5093747;28;20403;-71
2024/04/02 12:39:46;;;;;;;12.00;7.30;;;10.70;99.90;;;;;;5092340;28;20672;-65
2024/04/02 12:42:24;;;;;;;8.47;5.63;;;10.60;99.90;;;;;;5093632;28;20697;-69
2024/04/02 12:44:50;;;;;;;7.20;6.00;;;10.60;99.90;;;;;;5093552;28;20887;-69
2024/04/02 12:47:16;;;;;;;6.30;5.70;;;10.60;99.90;;;;;;5093560;28;20448;-71
2024/04/02 12:49:43;;;;;;;6.87;6.10;;;10.60;99.90;;;;;;5092402;28;20446;-68
2024/04/02 12:52:09;;;;;;;13.73;6.37;;;10.60;99.90;;;;;;5093457;28;20372;-68